KTVL/TVL METAR and TAF weather

Enter ICAO airport designator
Station Type Date Time Source
KTVL METAR 2024/05/28 22:53 UTC NOAA

KTVL 282253Z AUTO 20008G19KT 180V330 10SM CLR 20/04 A3017 RMK AO2 SLP173 T02000039


Station Type Date Time Source
KTVL Decoded METAR 2024/05/28 22:53 UTC NOAA

SOUTH LAKE TAHOE AIRPORT, CA, United States (KTVL) 38-53N 119-59W 1925M
May 28, 2024 - 06:53 PM EDT / 2024.05.28 2253 UTC
Wind: from the SSW (200 degrees) at 9 MPH (8 KT) gusting to 22 MPH (19 KT) (direction variable):0
Visibility: 10 mile(s):0
Sky conditions: clear
Temperature: 68.0 F (20.0 C)
Dew Point: 39.0 F (3.9 C)
Relative Humidity: 34%
Pressure (altimeter): 30.17 in. Hg (1021 hPa)
ob: KTVL 282253Z AUTO 20008G19KT 180V330 10SM CLR 20/04 A3017 RMK AO2 SLP173 T02000039
cycle: 23

Station Type Date Time Source
KTVL TAF 2024/05/28 18:36 UTC NOAA